sensor_id;sensor_type;location;lat;lon;timestamp;pressure;altitude;pressure_sealevel;temperature;humidity
71457;BME280;59263;48.160;11.752;2022-11-27T00:02:01;97180.72;;;-1.41;100.00
71457;BME280;59263;48.160;11.752;2022-11-27T00:04:26;97185.00;;;-1.43;100.00
71457;BME280;59263;48.160;11.752;2022-11-27T00:06:52;97179.13;;;-1.45;100.00
71457;BME280;59263;48.160;11.752;2022-11-27T00:09:17;97169.13;;;-1.51;100.00
71457;BME280;59263;48.160;11.752;2022-11-27T00:11:42;97177.47;;;-1.46;100.00
71457;BME280;59263;48.160;11.752;2022-11-27T00:14:15;97173.16;;;-1.42;100.00
71457;BME280;59263;48.160;11.752;2022-11-27T00:16:41;97168.19;;;-1.47;100.00
71457;BME280;59263;48.160;11.752;2022-11-27T00:19:08;97152.38;;;-1.58;100.00
71457;BME280;59263;48.160;11.752;2022-11-27T00:21:34;97170.84;;;-1.53;100.00
71457;BME280;59263;48.160;11.752;2022-11-27T00:24:02;97170.16;;;-1.58;100.00
71457;BME280;59263;48.160;11.752;2022-11-27T00:26:29;97154.25;;;-1.66;100.00
71457;BME280;59263;48.160;11.752;2022-11-27T00:28:55;97177.59;;;-1.52;100.00
71457;BME280;59263;48.160;11.752;2022-11-27T00:31:25;97179.34;;;-1.54;100.00
71457;BME280;59263;48.160;11.752;2022-11-27T00:33:53;97176.09;;;-1.59;100.00
71457;BME280;59263;48.160;11.752;2022-11-27T00:36:18;97152.75;;;-1.74;100.00
71457;BME280;59263;48.160;11.752;2022-11-27T00:38:43;97173.56;;;-1.59;100.00
71457;BME280;59263;48.160;11.752;2022-11-27T00:41:18;97158.63;;;-1.73;100.00
71457;BME280;59263;48.160;11.752;2022-11-27T00:43:44;97166.06;;;-1.65;100.00
71457;BME280;59263;48.160;11.752;2022-11-27T00:46:14;97169.56;;;-1.69;100.00
71457;BME280;59263;48.160;11.752;2022-11-27T00:48:40;97149.38;;;-1.76;100.00
71457;BME280;59263;48.160;11.752;2022-11-27T00:51:08;97147.59;;;-1.71;100.00
71457;BME280;59263;48.160;11.752;2022-11-27T00:53:34;97135.91;;;-1.78;100.00
71457;BME280;59263;48.160;11.752;2022-11-27T00:56:00;97145.97;;;-1.75;100.00
71457;BME280;59263;48.160;11.752;2022-11-27T00:58:26;97131.03;;;-1.87;100.00
71457;BME280;59263;48.160;11.752;2022-11-27T01:01:04;97141.94;;;-1.83;100.00
71457;BME280;59263;48.160;11.752;2022-11-27T01:03:30;97145.25;;;-1.80;100.00
71457;BME280;59263;48.160;11.752;2022-11-27T01:05:56;97148.59;;;-1.78;100.00
71457;BME280;59263;48.160;11.752;2022-11-27T01:08:25;97103.44;;;-2.01;100.00
71457;BME280;59263;48.160;11.752;2022-11-27T01:10:53;97137.69;;;-1.81;100.00
71457;BME280;59263;48.160;11.752;2022-11-27T01:13:22;97139.38;;;-1.82;100.00
71457;BME280;59263;48.160;11.752;2022-11-27T01:16:10;97135.03;;;-1.77;100.00
71457;BME280;59263;48.160;11.752;2022-11-27T01:18:37;97136.78;;;-1.79;100.00
71457;BME280;59263;48.160;11.752;2022-11-27T01:21:03;97131.91;;;-1.88;100.00
71457;BME280;59263;48.160;11.752;2022-11-27T01:23:29;97122.84;;;-1.98;100.00
71457;BME280;59263;48.160;11.752;2022-11-27T01:25:55;97133.75;;;-1.95;100.00
71457;BME280;59263;48.160;11.752;2022-11-27T01:28:22;97130.38;;;-1.95;100.00
71457;BME280;59263;48.160;11.752;2022-11-27T01:30:48;97133.00;;;-1.98;100.00
71457;BME280;59263;48.160;11.752;2022-11-27T01:33:14;97098.78;;;-2.19;100.00
71457;BME280;59263;48.160;11.752;2022-11-27T01:35:39;97105.50;;;-2.15;100.00
71457;BME280;59263;48.160;11.752;2022-11-27T01:38:05;97119.78;;;-2.12;100.00
71457;BME280;59263;48.160;11.752;2022-11-27T01:40:30;97123.13;;;-2.10;100.00
71457;BME280;59263;48.160;11.752;2022-11-27T01:42:56;97117.28;;;-2.14;100.00
71457;BME280;59263;48.160;11.752;2022-11-27T01:45:22;97111.34;;;-2.13;100.00
71457;BME280;59263;48.160;11.752;2022-11-27T01:47:59;97125.72;;;-2.13;100.00
71457;BME280;59263;48.160;11.752;2022-11-27T01:50:29;97116.53;;;-2.17;100.00
71457;BME280;59263;48.160;11.752;2022-11-27T01:53:00;97121.78;;;-2.27;100.00
71457;BME280;59263;48.160;11.752;2022-11-27T01:55:31;97095.06;;;-2.41;100.00
71457;BME280;59263;48.160;11.752;2022-11-27T01:58:09;97121.53;;;-2.14;100.00
71457;BME280;59263;48.160;11.752;2022-11-27T02:00:36;97129.97;;;-2.15;100.00
71457;BME280;59263;48.160;11.752;2022-11-27T02:03:02;97129.72;;;-2.03;100.00
71457;BME280;59263;48.160;11.752;2022-11-27T02:05:28;97117.78;;;-1.98;100.00
71457;BME280;59263;48.160;11.752;2022-11-27T02:07:55;97120.19;;;-1.93;100.00
71457;BME280;59263;48.160;11.752;2022-11-27T02:10:31;97110.03;;;-1.92;100.00
71457;BME280;59263;48.160;11.752;2022-11-27T02:13:08;97109.09;;;-1.88;100.00
71457;BME280;59263;48.160;11.752;2022-11-27T02:18:27;97102.44;;;-1.92;100.00
71457;BME280;59263;48.160;11.752;2022-11-27T02:23:52;97095.81;;;-1.99;100.00
71457;BME280;59263;48.160;11.752;2022-11-27T02:26:32;97090.81;;;-2.02;100.00
71457;BME280;59263;48.160;11.752;2022-11-27T02:29:03;97087.41;;;-2.01;100.00
71457;BME280;59263;48.160;11.752;2022-11-27T02:34:12;97085.94;;;-2.11;100.00
71457;BME280;59263;48.160;11.752;2022-11-27T02:36:44;97077.44;;;-2.07;100.00
71457;BME280;59263;48.160;11.752;2022-11-27T02:39:17;97069.72;;;-2.04;100.00
71457;BME280;59263;48.160;11.752;2022-11-27T02:41:51;97072.06;;;-1.97;100.00
71457;BME280;59263;48.160;11.752;2022-11-27T02:44:20;97048.59;;;-2.03;100.00
71457;BME280;59263;48.160;11.752;2022-11-27T02:46:47;97040.09;;;-2.02;100.00
71457;BME280;59263;48.160;11.752;2022-11-27T02:49:16;97074.34;;;-1.84;100.00
71457;BME280;59263;48.160;11.752;2022-11-27T02:51:55;97052.66;;;-1.96;100.00
71457;BME280;59263;48.160;11.752;2022-11-27T02:54:27;97048.53;;;-2.00;100.00
71457;BME280;59263;48.160;11.752;2022-11-27T02:56:55;97061.03;;;-1.92;100.00
71457;BME280;59263;48.160;11.752;2022-11-27T02:59:23;97044.06;;;-1.90;100.00
71457;BME280;59263;48.160;11.752;2022-11-27T03:01:54;97033.16;;;-1.94;100.00
71457;BME280;59263;48.160;11.752;2022-11-27T03:04:27;97027.19;;;-1.91;100.00
71457;BME280;59263;48.160;11.752;2022-11-27T03:06:56;97025.34;;;-1.86;100.00
71457;BME280;59263;48.160;11.752;2022-11-27T03:09:48;97028.75;;;-1.87;100.00
71457;BME280;59263;48.160;11.752;2022-11-27T03:12:13;97022.22;;;-1.96;100.00
71457;BME280;59263;48.160;11.752;2022-11-27T03:14:42;97008.81;;;-2.01;100.00
71457;BME280;59263;48.160;11.752;2022-11-27T03:17:35;97017.78;;;-1.88;100.00
71457;BME280;59263;48.160;11.752;2022-11-27T03:20:11;97016.16;;;-1.90;100.00
71457;BME280;59263;48.160;11.752;2022-11-27T03:22:39;97021.41;;;-1.98;100.00
71457;BME280;59263;48.160;11.752;2022-11-27T03:25:04;97015.69;;;-2.06;100.00
71457;BME280;59263;48.160;11.752;2022-11-27T03:27:33;97032.69;;;-2.11;100.00
71457;BME280;59263;48.160;11.752;2022-11-27T03:30:02;97026.91;;;-2.16;100.00
71457;BME280;59263;48.160;11.752;2022-11-27T03:32:29;97005.34;;;-2.33;100.00
71457;BME280;59263;48.160;11.752;2022-11-27T03:34:55;97002.06;;;-2.38;100.00
71457;BME280;59263;48.160;11.752;2022-11-27T03:37:22;97003.75;;;-2.37;100.00
71457;BME280;59263;48.160;11.752;2022-11-27T03:39:47;97012.78;;;-2.27;100.00
71457;BME280;59263;48.160;11.752;2022-11-27T03:44:52;97003.47;;;-2.25;100.00
71457;BME280;59263;48.160;11.752;2022-11-27T03:50:19;96988.25;;;-2.25;100.00
71457;BME280;59263;48.160;11.752;2022-11-27T03:52:51;96999.97;;;-2.21;100.00
71457;BME280;59263;48.160;11.752;2022-11-27T03:55:29;97002.47;;;-2.19;100.00
71457;BME280;59263;48.160;11.752;2022-11-27T03:58:00;96993.19;;;-2.20;100.00
71457;BME280;59263;48.160;11.752;2022-11-27T04:00:30;96992.13;;;-2.11;100.00
71457;BME280;59263;48.160;11.752;2022-11-27T04:02:57;96981.22;;;-2.13;100.00
71457;BME280;59263;48.160;11.752;2022-11-27T04:05:23;96997.88;;;-2.03;100.00
71457;BME280;59263;48.160;11.752;2022-11-27T04:07:48;96977.88;;;-2.15;100.00
71457;BME280;59263;48.160;11.752;2022-11-27T04:10:13;96985.28;;;-2.06;100.00
71457;BME280;59263;48.160;11.752;2022-11-27T04:12:40;96985.47;;;-2.15;100.00
71457;BME280;59263;48.160;11.752;2022-11-27T04:15:06;97002.13;;;-2.04;100.00
71457;BME280;59263;48.160;11.752;2022-11-27T04:17:32;96991.34;;;-2.13;100.00
71457;BME280;59263;48.160;11.752;2022-11-27T04:19:57;96997.22;;;-2.11;100.00
71457;BME280;59263;48.160;11.752;2022-11-27T04:22:23;96995.56;;;-2.12;100.00
71457;BME280;59263;48.160;11.752;2022-11-27T04:24:48;96979.75;;;-2.24;100.00
71457;BME280;59263;48.160;11.752;2022-11-27T04:27:14;96990.22;;;-2.02;100.00
71457;BME280;59263;48.160;11.752;2022-11-27T04:29:39;97000.44;;;-2.05;100.00
71457;BME280;59263;48.160;11.752;2022-11-27T04:32:04;96968.00;;;-2.26;100.00
71457;BME280;59263;48.160;11.752;2022-11-27T04:34:31;96987.19;;;-2.16;100.00
71457;BME280;59263;48.160;11.752;2022-11-27T04:36:56;96993.09;;;-2.15;100.00
71457;BME280;59263;48.160;11.752;2022-11-27T04:39:22;96982.22;;;-2.21;100.00
71457;BME280;59263;48.160;11.752;2022-11-27T04:41:47;96971.22;;;-2.20;100.00
71457;BME280;59263;48.160;11.752;2022-11-27T04:44:13;96999.59;;;-2.05;100.00
71457;BME280;59263;48.160;11.752;2022-11-27T04:46:39;96991.22;;;-2.07;100.00
71457;BME280;59263;48.160;11.752;2022-11-27T04:49:04;96972.03;;;-2.19;100.00
71457;BME280;59263;48.160;11.752;2022-11-27T04:51:30;96988.69;;;-2.09;100.00
71457;BME280;59263;48.160;11.752;2022-11-27T04:53:55;96991.34;;;-2.13;100.00
71457;BME280;59263;48.160;11.752;2022-11-27T04:56:21;96987.22;;;-2.17;100.00
71457;BME280;59263;48.160;11.752;2022-11-27T04:58:46;96978.31;;;-2.34;100.00
71457;BME280;59263;48.160;11.752;2022-11-27T05:01:11;96962.47;;;-2.42;100.00
71457;BME280;59263;48.160;11.752;2022-11-27T05:03:37;96981.47;;;-2.24;100.00
71457;BME280;59263;48.160;11.752;2022-11-27T05:06:02;96977.34;;;-2.28;100.00
71457;BME280;59263;48.160;11.752;2022-11-27T05:08:29;96983.19;;;-2.25;100.00
71457;BME280;59263;48.160;11.752;2022-11-27T05:11:00;96966.50;;;-2.35;100.00
71457;BME280;59263;48.160;11.752;2022-11-27T05:13:25;96955.47;;;-2.32;100.00
71457;BME280;59263;48.160;11.752;2022-11-27T05:15:51;96960.41;;;-2.26;100.00
71457;BME280;59263;48.160;11.752;2022-11-27T05:18:16;96961.31;;;-2.29;100.00
71457;BME280;59263;48.160;11.752;2022-11-27T05:20:41;96981.22;;;-2.13;100.00
71457;BME280;59263;48.160;11.752;2022-11-27T05:23:06;96977.88;;;-2.15;100.00
71457;BME280;59263;48.160;11.752;2022-11-27T05:25:32;96981.28;;;-2.16;100.00
71457;BME280;59263;48.160;11.752;2022-11-27T05:27:57;96969.63;;;-2.24;100.00
71457;BME280;59263;48.160;11.752;2022-11-27T05:30:22;96974.63;;;-2.21;100.00
71457;BME280;59263;48.160;11.752;2022-11-27T05:32:48;96970.19;;;-2.12;100.00
71457;BME280;59263;48.160;11.752;2022-11-27T05:35:13;96973.47;;;-2.07;100.00
71457;BME280;59263;48.160;11.752;2022-11-27T05:37:39;96972.78;;;-2.14;100.00
71457;BME280;59263;48.160;11.752;2022-11-27T05:40:05;96985.28;;;-2.06;100.00
71457;BME280;59263;48.160;11.752;2022-11-27T05:42:30;96979.47;;;-2.11;100.00
71457;BME280;59263;48.160;11.752;2022-11-27T05:44:55;96987.94;;;-2.12;100.00
71457;BME280;59263;48.160;11.752;2022-11-27T05:47:21;96963.97;;;-2.35;100.00
71457;BME280;59263;48.160;11.752;2022-11-27T05:49:46;96966.59;;;-2.38;100.00
71457;BME280;59263;48.160;11.752;2022-11-27T05:52:11;96961.75;;;-2.47;100.00
71457;BME280;59263;48.160;11.752;2022-11-27T05:54:37;96964.22;;;-2.46;100.00
71457;BME280;59263;48.160;11.752;2022-11-27T05:57:02;96958.41;;;-2.49;100.00
71457;BME280;59263;48.160;11.752;2022-11-27T05:59:27;96966.81;;;-2.47;100.00
71457;BME280;59263;48.160;11.752;2022-11-27T06:01:52;96970.31;;;-2.53;100.00
71457;BME280;59263;48.160;11.752;2022-11-27T06:04:18;96966.22;;;-2.58;100.00
71457;BME280;59263;48.160;11.752;2022-11-27T06:06:43;96952.84;;;-2.65;100.00
71457;BME280;59263;48.160;11.752;2022-11-27T06:09:08;96936.19;;;-2.74;100.00
71457;BME280;59263;48.160;11.752;2022-11-27T06:11:34;96958.56;;;-2.55;100.00
71457;BME280;59263;48.160;11.752;2022-11-27T06:13:59;96955.28;;;-2.60;100.00
71457;BME280;59263;48.160;11.752;2022-11-27T06:16:24;96949.50;;;-2.65;100.00
71457;BME280;59263;48.160;11.752;2022-11-27T06:18:51;96947.91;;;-2.71;100.00
71457;BME280;59263;48.160;11.752;2022-11-27T06:21:18;96964.09;;;-2.77;100.00
71457;BME280;59263;48.160;11.752;2022-11-27T06:23:44;96950.78;;;-2.85;100.00
71457;BME280;59263;48.160;11.752;2022-11-27T06:26:16;96959.38;;;-2.92;100.00
71457;BME280;59263;48.160;11.752;2022-11-27T06:28:42;96963.94;;;-3.09;100.00
71457;BME280;59263;48.160;11.752;2022-11-27T06:31:10;96968.13;;;-3.08;100.00
71457;BME280;59263;48.160;11.752;2022-11-27T06:33:36;96970.75;;;-3.11;100.00
71457;BME280;59263;48.160;11.752;2022-11-27T06:36:02;96968.97;;;-3.08;100.00
71457;BME280;59263;48.160;11.752;2022-11-27T06:38:31;96973.13;;;-3.04;100.00
71457;BME280;59263;48.160;11.752;2022-11-27T06:41:05;96972.97;;;-2.96;100.00
71457;BME280;59263;48.160;11.752;2022-11-27T06:43:31;96968.06;;;-3.05;100.00
71457;BME280;59263;48.160;11.752;2022-11-27T06:45:57;96973.81;;;-2.97;100.00
71457;BME280;59263;48.160;11.752;2022-11-27T06:48:23;96957.13;;;-3.06;100.00
71457;BME280;59263;48.160;11.752;2022-11-27T06:50:48;96972.03;;;-2.92;100.00
71457;BME280;59263;48.160;11.752;2022-11-27T06:53:14;96972.81;;;-2.90;100.00
71457;BME280;59263;48.160;11.752;2022-11-27T06:55:39;96969.50;;;-2.92;100.00
71457;BME280;59263;48.160;11.752;2022-11-27T06:58:04;96960.97;;;-2.88;100.00
71457;BME280;59263;48.160;11.752;2022-11-27T07:00:29;96960.81;;;-2.82;100.00
71457;BME280;59263;48.160;11.752;2022-11-27T07:02:55;96967.41;;;-2.75;100.00
71457;BME280;59263;48.160;11.752;2022-11-27T07:05:20;96964.88;;;-2.73;100.00
71457;BME280;59263;48.160;11.752;2022-11-27T07:07:46;96963.22;;;-2.74;100.00
71457;BME280;59263;48.160;11.752;2022-11-27T07:10:12;96963.97;;;-2.71;100.00
71457;BME280;59263;48.160;11.752;2022-11-27T07:12:37;96953.91;;;-2.74;100.00
71457;BME280;59263;48.160;11.752;2022-11-27T07:15:02;96965.34;;;-2.57;100.00
71457;BME280;59263;48.160;11.752;2022-11-27T07:17:28;96966.03;;;-2.51;100.00
71457;BME280;59263;48.160;11.752;2022-11-27T07:19:53;96945.66;;;-2.46;100.00
71457;BME280;59263;48.160;11.752;2022-11-27T07:22:18;96942.13;;;-2.39;100.00
71457;BME280;59263;48.160;11.752;2022-11-27T07:24:43;96964.56;;;-2.24;100.00
71457;BME280;59263;48.160;11.752;2022-11-27T07:27:09;96957.31;;;-2.03;100.00
71457;BME280;59263;48.160;11.752;2022-11-27T07:29:34;96956.38;;;-2.01;100.00
71457;BME280;59263;48.160;11.752;2022-11-27T07:31:59;96963.91;;;-1.98;100.00
71457;BME280;59263;48.160;11.752;2022-11-27T07:34:25;96945.34;;;-1.98;100.00
71457;BME280;59263;48.160;11.752;2022-11-27T07:36:50;96955.09;;;-1.83;100.00
71457;BME280;59263;48.160;11.752;2022-11-27T07:39:16;96946.44;;;-1.76;100.00
71457;BME280;59263;48.160;11.752;2022-11-27T07:41:42;96954.53;;;-1.61;100.00
71457;BME280;59263;48.160;11.752;2022-11-27T07:44:08;96955.16;;;-1.53;100.00
71457;BME280;59263;48.160;11.752;2022-11-27T07:46:33;96945.75;;;-1.50;100.00
71457;BME280;59263;48.160;11.752;2022-11-27T07:48:58;96933.06;;;-1.50;100.00
71457;BME280;59263;48.160;11.752;2022-11-27T07:51:24;96923.75;;;-1.49;100.00
71457;BME280;59263;48.160;11.752;2022-11-27T07:53:49;96928.50;;;-1.37;100.00
71457;BME280;59263;48.160;11.752;2022-11-27T07:56:16;96931.72;;;-1.32;100.00
71457;BME280;59263;48.160;11.752;2022-11-27T07:58:42;96938.88;;;-1.15;100.00
71457;BME280;59263;48.160;11.752;2022-11-27T08:01:09;96924.34;;;-1.11;100.00
71457;BME280;59263;48.160;11.752;2022-11-27T08:03:35;96920.13;;;-1.11;100.00
71457;BME280;59263;48.160;11.752;2022-11-27T08:06:00;96929.09;;;-0.99;100.00
71457;BME280;59263;48.160;11.752;2022-11-27T08:08:25;96903.88;;;-1.05;100.00
71457;BME280;59263;48.160;11.752;2022-11-27T08:10:51;96926.25;;;-0.88;100.00
71457;BME280;59263;48.160;11.752;2022-11-27T08:13:16;96921.78;;;-0.82;100.00
71457;BME280;59263;48.160;11.752;2022-11-27T08:15:41;96906.41;;;-0.77;100.00
71457;BME280;59263;48.160;11.752;2022-11-27T08:18:07;96913.72;;;-0.66;100.00
71457;BME280;59263;48.160;11.752;2022-11-27T08:20:32;96910.09;;;-0.59;100.00
71457;BME280;59263;48.160;11.752;2022-11-27T08:22:57;96895.69;;;-0.59;100.00
71457;BME280;59263;48.160;11.752;2022-11-27T08:25:23;96905.50;;;-0.48;100.00
71457;BME280;59263;48.160;11.752;2022-11-27T08:27:49;96901.94;;;-0.42;100.00
71457;BME280;59263;48.160;11.752;2022-11-27T08:30:14;96898.38;;;-0.37;100.00
71457;BME280;59263;48.160;11.752;2022-11-27T08:32:41;96897.34;;;-0.31;100.00
71457;BME280;59263;48.160;11.752;2022-11-27T08:35:07;96901.41;;;-0.26;100.00
71457;BME280;59263;48.160;11.752;2022-11-27T08:37:32;96898.63;;;-0.19;100.00
71457;BME280;59263;48.160;11.752;2022-11-27T08:39:58;96890.09;;;-0.17;100.00
71457;BME280;59263;48.160;11.752;2022-11-27T08:42:23;96888.94;;;-0.08;100.00
71457;BME280;59263;48.160;11.752;2022-11-27T08:44:48;96880.13;;;0.02;100.00
71457;BME280;59263;48.160;11.752;2022-11-27T08:47:13;96880.22;;;-0.01;100.00
71457;BME280;59263;48.160;11.752;2022-11-27T08:49:41;96897.63;;;0.11;100.00
71457;BME280;59263;48.160;11.752;2022-11-27T08:52:06;96886.66;;;0.09;100.00
71457;BME280;59263;48.160;11.752;2022-11-27T08:54:32;96882.28;;;0.13;100.00
71457;BME280;59263;48.160;11.752;2022-11-27T08:56:57;96898.94;;;0.21;100.00
71457;BME280;59263;48.160;11.752;2022-11-27T08:59:22;96878.75;;;0.17;100.00
71457;BME280;59263;48.160;11.752;2022-11-27T09:01:47;96881.13;;;0.21;100.00
71457;BME280;59263;48.160;11.752;2022-11-27T09:04:13;96889.00;;;0.39;100.00
71457;BME280;59263;48.160;11.752;2022-11-27T09:06:40;96873.94;;;0.33;100.00
71457;BME280;59263;48.160;11.752;2022-11-27T09:09:05;96878.72;;;0.42;100.00
71457;BME280;59263;48.160;11.752;2022-11-27T09:11:32;96872.47;;;0.51;100.00
71457;BME280;59263;48.160;11.752;2022-11-27T09:13:59;96869.88;;;0.52;100.00
71457;BME280;59263;48.160;11.752;2022-11-27T09:16:24;96867.06;;;0.60;100.00
71457;BME280;59263;48.160;11.752;2022-11-27T09:18:51;96880.94;;;0.75;100.00
71457;BME280;59263;48.160;11.752;2022-11-27T09:21:20;96870.50;;;0.81;100.00
71457;BME280;59263;48.160;11.752;2022-11-27T09:23:45;96840.22;;;0.73;100.00
71457;BME280;59263;48.160;11.752;2022-11-27T09:26:13;96874.16;;;0.97;100.00
71457;BME280;59263;48.160;11.752;2022-11-27T09:28:39;96859.81;;;0.94;100.00
71457;BME280;59263;48.160;11.752;2022-11-27T09:31:08;96877.88;;;1.10;100.00
71457;BME280;59263;48.160;11.752;2022-11-27T09:33:37;96867.56;;;1.13;100.00
71457;BME280;59263;48.160;11.752;2022-11-27T09:36:07;96873.50;;;1.14;100.00
71457;BME280;59263;48.160;11.752;2022-11-27T09:38:33;96875.63;;;1.25;100.00
71457;BME280;59263;48.160;11.752;2022-11-27T09:41:02;96858.78;;;1.20;100.00
71457;BME280;59263;48.160;11.752;2022-11-27T09:43:33;96871.84;;;1.35;100.00
71457;BME280;59263;48.160;11.752;2022-11-27T09:46:04;96872.34;;;1.43;100.00
71457;BME280;59263;48.160;11.752;2022-11-27T09:48:37;96865.47;;;1.45;100.00
71457;BME280;59263;48.160;11.752;2022-11-27T09:51:08;96861.13;;;1.47;100.00
71457;BME280;59263;48.160;11.752;2022-11-27T09:53:41;96859.09;;;1.55;100.00
71457;BME280;59263;48.160;11.752;2022-11-27T09:56:10;96859.09;;;1.55;100.00
71457;BME280;59263;48.160;11.752;2022-11-27T09:58:39;96850.25;;;1.64;100.00
71457;BME280;59263;48.160;11.752;2022-11-27T10:01:17;96844.06;;;1.69;100.00
71457;BME280;59263;48.160;11.752;2022-11-27T10:03:44;96836.41;;;1.69;100.00
71457;BME280;59263;48.160;11.752;2022-11-27T10:09:12;96840.25;;;1.80;100.00
71457;BME280;59263;48.160;11.752;2022-11-27T10:17:02;96821.84;;;1.92;100.00
71457;BME280;59263;48.160;11.752;2022-11-27T10:22:13;96807.88;;;2.01;100.00
71457;BME280;59263;48.160;11.752;2022-11-27T10:25:01;96806.44;;;2.14;100.00
71457;BME280;59263;48.160;11.752;2022-11-27T10:27:36;96809.81;;;2.14;100.00
71457;BME280;59263;48.160;11.752;2022-11-27T10:30:14;96808.53;;;2.25;100.00
71457;BME280;59263;48.160;11.752;2022-11-27T10:32:41;96793.22;;;2.25;100.00
71457;BME280;59263;48.160;11.752;2022-11-27T10:35:16;96803.03;;;2.34;100.00
71457;BME280;59263;48.160;11.752;2022-11-27T10:40:32;96775.81;;;2.33;100.00
71457;BME280;59263;48.160;11.752;2022-11-27T10:43:10;96780.22;;;2.48;100.00
71457;BME280;59263;48.160;11.752;2022-11-27T10:48:21;96776.81;;;2.49;100.00
71457;BME280;59263;48.160;11.752;2022-11-27T10:50:46;96764.78;;;2.51;100.00
71457;BME280;59263;48.160;11.752;2022-11-27T10:53:31;96771.25;;;2.58;100.00
71457;BME280;59263;48.160;11.752;2022-11-27T10:58:59;96770.53;;;2.74;100.00
71457;BME280;59263;48.160;11.752;2022-11-27T11:01:27;96759.22;;;2.79;100.00
71457;BME280;59263;48.160;11.752;2022-11-27T11:04:07;96757.94;;;2.88;100.00
71457;BME280;59263;48.160;11.752;2022-11-27T11:06:37;96751.34;;;2.84;100.00
71457;BME280;59263;48.160;11.752;2022-11-27T11:09:25;96765.56;;;2.89;100.00
71457;BME280;59263;48.160;11.752;2022-11-27T11:11:52;96760.38;;;2.91;100.00
71457;BME280;59263;48.160;11.752;2022-11-27T11:14:25;96765.94;;;2.99;100.00
71457;BME280;59263;48.160;11.752;2022-11-27T11:16:52;96762.63;;;2.97;100.00
71457;BME280;59263;48.160;11.752;2022-11-27T11:19:32;96767.75;;;2.97;100.00
71457;BME280;59263;48.160;11.752;2022-11-27T11:21:59;96766.75;;;3.00;100.00
71457;BME280;59263;48.160;11.752;2022-11-27T11:24:31;96768.50;;;2.99;100.00
71457;BME280;59263;48.160;11.752;2022-11-27T11:27:03;96774.81;;;3.09;100.00
71457;BME280;59263;48.160;11.752;2022-11-27T11:32:15;96759.03;;;3.01;100.00
71457;BME280;59263;48.160;11.752;2022-11-27T11:34:47;96772.41;;;3.06;100.00
71457;BME280;59263;48.160;11.752;2022-11-27T11:39:58;96755.72;;;2.99;100.00
71457;BME280;59263;48.160;11.752;2022-11-27T11:42:30;96741.66;;;2.90;100.00
71457;BME280;59263;48.160;11.752;2022-11-27T11:47:51;96736.75;;;3.03;100.00
71457;BME280;59263;48.160;11.752;2022-11-27T11:53:04;96737.66;;;3.02;100.00
71457;BME280;59263;48.160;11.752;2022-11-27T12:01:31;96758.25;;;2.82;100.00
71457;BME280;59263;48.160;11.752;2022-11-27T12:15:30;96747.44;;;2.94;100.00
71457;BME280;59263;48.160;11.752;2022-11-27T12:29:00;96719.88;;;3.01;100.00
71457;BME280;59263;48.160;11.752;2022-11-27T12:45:35;96703.81;;;3.14;100.00
71457;BME280;59263;48.160;11.752;2022-11-27T12:48:13;96690.31;;;3.12;100.00
71457;BME280;59263;48.160;11.752;2022-11-27T12:50:44;96687.81;;;3.11;100.00
71457;BME280;59263;48.160;11.752;2022-11-27T12:53:22;96685.25;;;3.11;100.00
71457;BME280;59263;48.160;11.752;2022-11-27T12:55:59;96693.94;;;3.08;100.00
71457;BME280;59263;48.160;11.752;2022-11-27T12:58:31;96680.22;;;3.09;100.00
71457;BME280;59263;48.160;11.752;2022-11-27T13:01:05;96674.53;;;3.04;100.00
71457;BME280;59263;48.160;11.752;2022-11-27T13:03:45;96675.72;;;2.97;100.00
71457;BME280;59263;48.160;11.752;2022-11-27T13:06:17;96675.06;;;2.94;100.00
71457;BME280;59263;48.160;11.752;2022-11-27T13:11:14;96630.03;;;2.56;100.00
71457;BME280;59263;48.160;11.752;2022-11-27T13:16:17;96660.44;;;2.61;100.00
71457;BME280;59263;48.160;11.752;2022-11-27T13:19:05;96658.31;;;2.52;100.00
71457;BME280;59263;48.160;11.752;2022-11-27T13:21:33;96662.22;;;2.41;100.00
71457;BME280;59263;48.160;11.752;2022-11-27T13:24:00;96645.94;;;2.25;100.00
71457;BME280;59263;48.160;11.752;2022-11-27T13:26:32;96638.91;;;2.30;100.00
71457;BME280;59263;48.160;11.752;2022-11-27T13:29:00;96653.13;;;2.36;100.00
71457;BME280;59263;48.160;11.752;2022-11-27T13:31:33;96639.75;;;2.31;100.00
71457;BME280;59263;48.160;11.752;2022-11-27T13:34:04;96642.34;;;2.29;100.00
71457;BME280;59263;48.160;11.752;2022-11-27T13:36:38;96636.41;;;2.29;100.00
71457;BME280;59263;48.160;11.752;2022-11-27T13:39:05;96633.72;;;2.32;100.00
71457;BME280;59263;48.160;11.752;2022-11-27T13:41:36;96637.56;;;2.23;100.00
71457;BME280;59263;48.160;11.752;2022-11-27T13:47:09;96636.56;;;2.26;100.00
71457;BME280;59263;48.160;11.752;2022-11-27T13:49:36;96630.78;;;2.22;100.00
71457;BME280;59263;48.160;11.752;2022-11-27T13:54:59;96622.59;;;2.33;100.00
71457;BME280;59263;48.160;11.752;2022-11-27T13:57:27;96630.28;;;2.33;100.00
71457;BME280;59263;48.160;11.752;2022-11-27T14:00:06;96619.31;;;2.31;100.00
71457;BME280;59263;48.160;11.752;2022-11-27T14:02:44;96625.25;;;2.31;100.00
71457;BME280;59263;48.160;11.752;2022-11-27T14:05:11;96621.66;;;2.35;100.00
71457;BME280;59263;48.160;11.752;2022-11-27T14:07:42;96587.53;;;2.19;100.00
71457;BME280;59263;48.160;11.752;2022-11-27T14:10:18;96606.09;;;2.23;100.00
71457;BME280;59263;48.160;11.752;2022-11-27T14:12:57;96609.97;;;2.30;100.00
71457;BME280;59263;48.160;11.752;2022-11-27T14:15:26;96616.81;;;2.29;100.00
71457;BME280;59263;48.160;11.752;2022-11-27T14:20:30;96617.81;;;2.27;100.00
71457;BME280;59263;48.160;11.752;2022-11-27T14:22:58;96616.97;;;2.26;100.00
71457;BME280;59263;48.160;11.752;2022-11-27T14:25:31;96612.97;;;2.21;100.00
71457;BME280;59263;48.160;11.752;2022-11-27T14:30:28;96617.31;;;2.18;100.00
71457;BME280;59263;48.160;11.752;2022-11-27T14:32:54;96602.53;;;2.08;100.00